Time;durP1;ratioP1;P1;durP2;ratioP2;P2;SDS_P1;SDS_P2;PMS_P1;PMS_P2;Temp;Humidity;BMP_temperature;BMP_pressure;BME280_temperature;BME280_humidity;BME280_pressure;Samples;Min_cycle;Max_cycle;Signal;HPM_P1;HPM_P2
2022/10/29 00:02:08;;;;;;;18.42;6.18;;;20.30;65.50;;;;;;6121665;29;20035;-73
2022/10/29 00:05:09;;;;;;;13.55;5.38;;;20.30;65.60;;;;;;6115097;29;20176;-73
2022/10/29 00:08:10;;;;;;;19.10;5.90;;;20.20;65.50;;;;;;6117017;29;20055;-73
2022/10/29 00:11:17;;;;;;;23.58;5.65;;;20.20;65.50;;;;;;6114737;29;20501;-74
2022/10/29 00:14:18;;;;;;;18.17;5.35;;;20.20;65.40;;;;;;6117365;29;20095;-73
2022/10/29 00:17:18;;;;;;;24.52;5.97;;;20.20;65.30;;;;;;6133311;29;20080;-73
2022/10/29 00:20:20;;;;;;;18.08;6.00;;;20.20;65.30;;;;;;6122285;29;20036;-73
2022/10/29 00:23:21;;;;;;;21.80;6.00;;;20.20;65.20;;;;;;6100861;29;20035;-73
2022/10/29 00:26:22;;;;;;;16.27;5.28;;;20.20;65.20;;;;;;6123121;29;20047;-73
2022/10/29 00:29:23;;;;;;;26.00;6.05;;;20.10;65.10;;;;;;6108712;29;20046;-73
2022/10/29 00:32:24;;;;;;;18.42;4.93;;;20.10;65.10;;;;;;6120811;29;20465;-73
2022/10/29 00:35:25;;;;;;;22.90;6.40;;;20.10;65.10;;;;;;6112645;29;20138;-73
2022/10/29 00:38:27;;;;;;;10.20;4.80;;;20.10;65.00;;;;;;6120636;29;20036;-73
2022/10/29 00:41:29;;;;;;;18.67;6.15;;;20.10;65.00;;;;;;6103355;29;20028;-73
2022/10/29 00:44:37;;;;;;;28.48;5.63;;;20.00;65.00;;;;;;6097725;29;20059;-73
2022/10/29 00:47:48;;;;;;;23.25;5.60;;;20.00;64.90;;;;;;6115838;29;20050;-73
2022/10/29 00:50:50;;;;;;;11.88;4.95;;;20.00;64.80;;;;;;6111212;29;20143;-73
2022/10/29 00:54:00;;;;;;;15.75;4.82;;;20.00;64.80;;;;;;6114487;29;20377;-73
2022/10/29 00:57:08;;;;;;;14.57;4.85;;;20.00;64.80;;;;;;6114109;28;20108;-73
2022/10/29 01:00:10;;;;;;;16.83;4.72;;;19.90;64.70;;;;;;6121042;29;20128;-73
2022/10/29 01:03:11;;;;;;;13.98;4.18;;;19.90;64.60;;;;;;6114493;29;20070;-72
2022/10/29 01:06:13;;;;;;;12.70;5.05;;;19.80;64.50;;;;;;6111156;29;20040;-72
2022/10/29 01:09:13;;;;;;;13.23;4.35;;;19.80;64.40;;;;;;6114514;29;20039;-73
2022/10/29 01:12:40;;;;;;;11.18;4.47;;;19.80;64.30;;;;;;6115877;29;20054;-72
2022/10/29 01:16:16;;;;;;;20.42;5.18;;;19.80;64.30;;;;;;6121322;29;20072;-73
2022/10/29 01:19:53;;;;;;;11.65;4.00;;;19.80;64.20;;;;;;6106522;29;20127;-73
2022/10/29 01:23:12;;;;;;;13.55;4.40;;;19.80;63.80;;;;;;6120276;29;20485;-73
2022/10/29 01:26:36;;;;;;;20.17;4.43;;;19.70;62.90;;;;;;6115605;29;20047;-73
2022/10/29 01:29:58;;;;;;;12.90;3.47;;;19.70;62.50;;;;;;6087388;29;20079;-73
2022/10/29 01:33:14;;;;;;;13.10;3.55;;;19.70;62.10;;;;;;6115822;29;20044;-73
2022/10/29 01:36:37;;;;;;;14.52;4.25;;;19.70;62.10;;;;;;6116760;29;20184;-73
2022/10/29 01:40:05;;;;;;;14.48;4.18;;;19.60;62.10;;;;;;6106910;29;20040;-73
2022/10/29 01:43:12;;;;;;;18.73;4.47;;;19.60;62.10;;;;;;6109033;29;20547;-73
2022/10/29 01:46:28;;;;;;;19.58;4.97;;;19.60;62.10;;;;;;6115897;29;20465;-73
2022/10/29 01:49:42;;;;;;;19.75;5.30;;;19.50;62.40;;;;;;6101048;29;20041;-73
2022/10/29 01:52:45;;;;;;;25.90;5.50;;;19.50;63.00;;;;;;6115898;29;20123;-73
2022/10/29 01:55:46;;;;;;;16.33;5.07;;;19.50;63.50;;;;;;6108333;29;20150;-73
2022/10/29 01:58:50;;;;;;;17.73;4.90;;;19.40;63.70;;;;;;6105157;29;20103;-73
2022/10/29 02:01:51;;;;;;;11.52;4.80;;;19.40;64.10;;;;;;6108871;29;20039;-73
2022/10/29 02:05:29;;;;;;;15.88;4.75;;;19.40;64.40;;;;;;6112183;29;20130;-72
2022/10/29 02:08:49;;;;;;;13.48;5.38;;;19.40;65.00;;;;;;6113263;29;20040;-73
2022/10/29 02:12:02;;;;;;;17.75;5.28;;;19.30;65.30;;;;;;6113217;29;20040;-73
2022/10/29 02:15:16;;;;;;;18.00;5.38;;;19.30;65.90;;;;;;6118524;29;20043;-73
2022/10/29 02:18:18;;;;;;;22.60;5.20;;;19.20;66.30;;;;;;6117788;29;20126;-73
2022/10/29 02:21:19;;;;;;;13.10;5.28;;;19.10;66.50;;;;;;6110847;29;20118;-73
2022/10/29 02:24:20;;;;;;;21.00;5.00;;;19.10;66.70;;;;;;6113107;29;20434;-73
2022/10/29 02:27:21;;;;;;;13.70;5.05;;;19.00;66.90;;;;;;6115648;29;20043;-73
2022/10/29 02:30:22;;;;;;;18.13;5.78;;;19.00;67.10;;;;;;6116109;29;20087;-72
2022/10/29 02:33:23;;;;;;;23.45;6.32;;;19.00;67.40;;;;;;6111094;29;20213;-72
2022/10/29 02:36:23;;;;;;;14.48;4.70;;;18.90;67.60;;;;;;6113418;29;20039;-73
2022/10/29 02:39:24;;;;;;;15.25;5.72;;;18.90;67.80;;;;;;6112001;29;20063;-73
2022/10/29 02:42:25;;;;;;;14.38;4.63;;;18.90;67.80;;;;;;6103955;29;20040;-73
2022/10/29 02:45:26;;;;;;;15.02;5.60;;;18.80;68.00;;;;;;6109044;29;20047;-73
2022/10/29 02:48:27;;;;;;;11.70;4.63;;;18.80;68.10;;;;;;6116427;29;20035;-73
2022/10/29 02:51:28;;;;;;;28.98;5.38;;;18.80;69.10;;;;;;6116158;29;20057;-74
2022/10/29 02:54:28;;;;;;;15.48;4.97;;;18.70;68.50;;;;;;6116337;29;20067;-73
2022/10/29 02:57:29;;;;;;;14.98;5.45;;;18.70;68.60;;;;;;6120249;29;20024;-73
2022/10/29 03:00:31;;;;;;;14.85;5.43;;;18.70;68.80;;;;;;6116668;29;20028;-73
2022/10/29 03:03:32;;;;;;;17.70;5.13;;;18.60;68.80;;;;;;6120391;29;20052;-73
2022/10/29 03:06:33;;;;;;;12.18;4.97;;;18.60;69.00;;;;;;6112772;29;20043;-73
2022/10/29 03:09:33;;;;;;;11.68;4.65;;;18.60;69.00;;;;;;6126112;28;20123;-73
2022/10/29 03:12:34;;;;;;;12.20;4.78;;;18.60;69.10;;;;;;6110797;29;20439;-73
2022/10/29 03:15:35;;;;;;;19.65;6.15;;;18.60;69.10;;;;;;6122862;29;20036;-73
2022/10/29 03:18:37;;;;;;;16.38;5.10;;;18.60;69.20;;;;;;6106335;29;20052;-73
2022/10/29 03:21:37;;;;;;;16.85;5.25;;;18.60;69.20;;;;;;6116759;29;20036;-73
2022/10/29 03:24:38;;;;;;;18.27;5.05;;;18.60;69.10;;;;;;6116723;29;20071;-73
2022/10/29 03:27:43;;;;;;;19.95;5.10;;;18.60;69.00;;;;;;6101702;29;20082;-73
2022/10/29 03:30:44;;;;;;;23.33;5.35;;;18.60;69.00;;;;;;6098158;29;20036;-73
2022/10/29 03:33:44;;;;;;;19.83;5.43;;;18.50;68.90;;;;;;6114900;29;20039;-73
2022/10/29 03:36:45;;;;;;;16.17;5.18;;;18.50;68.90;;;;;;6112643;29;20410;-73
2022/10/29 03:39:46;;;;;;;11.40;4.53;;;18.50;68.80;;;;;;6104891;29;20044;-74
2022/10/29 03:42:47;;;;;;;12.90;4.47;;;18.50;68.70;;;;;;6117114;29;20044;-73
2022/10/29 03:45:55;;;;;;;18.50;4.97;;;18.50;68.70;;;;;;6118177;29;20092;-73
2022/10/29 03:48:56;;;;;;;;;;;18.50;68.70;;;;;;6122284;29;20388;-73
2022/10/29 03:51:57;;;;;;;17.67;5.32;;;18.50;68.60;;;;;;6119478;29;19927;-73
2022/10/29 03:54:57;;;;;;;14.40;4.60;;;18.50;68.40;;;;;;6114394;29;20051;-73
2022/10/29 03:57:58;;;;;;;29.65;5.85;;;18.50;68.50;;;;;;6120855;29;20480;-73
2022/10/29 04:01:02;;;;;;;21.65;5.72;;;18.50;69.30;;;;;;6119649;29;20115;-73
2022/10/29 04:04:03;;;;;;;15.95;5.25;;;18.40;68.50;;;;;;6119815;29;20068;-73
2022/10/29 04:07:04;;;;;;;17.85;5.32;;;18.40;68.60;;;;;;6120239;29;20050;-73
2022/10/29 04:10:05;;;;;;;17.17;4.80;;;18.40;68.70;;;;;;6118470;29;20051;-73
2022/10/29 04:13:06;;;;;;;17.92;5.82;;;18.40;68.80;;;;;;6118781;29;20051;-73
2022/10/29 04:16:07;;;;;;;11.88;5.55;;;18.30;68.80;;;;;;6122486;29;20044;-73
2022/10/29 04:19:08;;;;;;;18.48;4.72;;;18.30;68.80;;;;;;6121332;29;20047;-73
2022/10/29 04:22:10;;;;;;;13.82;4.85;;;18.30;68.80;;;;;;6115036;29;20068;-73
2022/10/29 04:25:11;;;;;;;18.15;5.95;;;18.30;68.80;;;;;;6113980;29;20082;-72
2022/10/29 04:28:12;;;;;;;19.67;5.53;;;18.30;68.80;;;;;;6111315;29;20063;-73
2022/10/29 04:31:13;;;;;;;17.35;5.90;;;18.30;68.80;;;;;;6121284;29;20470;-73
2022/10/29 04:34:14;;;;;;;13.10;5.18;;;18.30;69.00;;;;;;6115489;29;20054;-73
2022/10/29 04:37:14;;;;;;;13.38;5.10;;;18.30;69.00;;;;;;6110567;29;20103;-73
2022/10/29 04:40:15;;;;;;;17.95;4.28;;;18.30;69.10;;;;;;6099898;29;20119;-73
2022/10/29 04:43:17;;;;;;;18.10;4.70;;;18.20;69.10;;;;;;6119717;29;20044;-72
2022/10/29 04:46:17;;;;;;;16.90;4.28;;;18.20;69.10;;;;;;6123435;29;20056;-72
2022/10/29 04:49:18;;;;;;;16.70;4.97;;;18.20;69.10;;;;;;6115365;29;20044;-73
2022/10/29 04:52:19;;;;;;;13.75;5.20;;;18.20;69.10;;;;;;6121012;29;20047;-73
2022/10/29 04:55:20;;;;;;;14.30;4.82;;;18.20;69.10;;;;;;6099179;29;20430;-73
2022/10/29 04:58:21;;;;;;;16.60;5.05;;;18.20;69.00;;;;;;6120057;29;20196;-73
2022/10/29 05:01:22;;;;;;;15.90;4.63;;;18.20;69.00;;;;;;6107673;29;20051;-73
2022/10/29 05:04:22;;;;;;;15.38;5.22;;;18.20;69.00;;;;;;6116230;29;20043;-72
2022/10/29 05:07:23;;;;;;;17.77;5.32;;;18.20;69.00;;;;;;6114473;29;20131;-72
2022/10/29 05:10:26;;;;;;;21.67;6.03;;;18.20;69.10;;;;;;6105239;29;20040;-72
2022/10/29 05:13:27;;;;;;;18.08;5.38;;;18.20;69.10;;;;;;6099510;29;20114;-72
2022/10/29 05:16:28;;;;;;;18.88;6.30;;;18.20;69.20;;;;;;6134018;29;20488;-72
2022/10/29 05:19:29;;;;;;;17.17;5.82;;;18.20;69.10;;;;;;6115437;29;20054;-72
2022/10/29 05:22:30;;;;;;;13.23;5.35;;;18.20;69.10;;;;;;6090729;29;20040;-73
2022/10/29 05:25:32;;;;;;;18.98;5.97;;;18.20;69.20;;;;;;6112113;29;20481;-72
2022/10/29 05:28:33;;;;;;;15.52;5.85;;;18.20;69.10;;;;;;6082206;29;20051;-73
2022/10/29 05:31:33;;;;;;;27.27;5.07;;;18.20;69.10;;;;;;6103890;29;20044;-72
2022/10/29 05:34:34;;;;;;;21.80;5.57;;;18.20;69.00;;;;;;6105961;29;20462;-72
2022/10/29 05:37:35;;;;;;;18.40;5.15;;;18.20;68.90;;;;;;6108256;29;20044;-72
2022/10/29 05:40:43;;;;;;;15.85;5.68;;;18.30;68.90;;;;;;6285106;27;20941;-73
2022/10/29 05:43:47;;;;;;;21.88;4.75;;;18.20;68.80;;;;;;6252443;28;20124;-73
2022/10/29 05:46:49;;;;;;;27.48;5.28;;;18.20;68.70;;;;;;6258438;28;20496;-73
2022/10/29 05:49:49;;;;;;;19.42;4.70;;;18.30;68.70;;;;;;6264384;28;20537;-73
2022/10/29 05:53:02;;;;;;;16.05;4.55;;;18.20;68.50;;;;;;6241626;28;20047;-73
2022/10/29 05:56:03;;;;;;;18.42;5.22;;;18.20;68.40;;;;;;6253764;28;20433;-73
2022/10/29 05:59:04;;;;;;;20.15;4.90;;;18.20;68.30;;;;;;6269037;28;20038;-73
2022/10/29 06:02:05;;;;;;;16.27;4.57;;;18.20;68.30;;;;;;6236539;28;20377;-73
2022/10/29 06:05:06;;;;;;;16.52;4.45;;;18.20;68.10;;;;;;6252456;28;20106;-72
2022/10/29 06:08:07;;;;;;;15.18;5.07;;;18.30;68.10;;;;;;6241185;28;20125;-72
2022/10/29 06:11:08;;;;;;;18.45;5.15;;;18.20;68.00;;;;;;6245557;28;20044;-72
2022/10/29 06:14:08;;;;;;;12.80;4.65;;;18.20;68.00;;;;;;6254360;28;20034;-73
2022/10/29 06:17:09;;;;;;;23.60;5.07;;;18.20;67.90;;;;;;6250606;28;20315;-73
2022/10/29 06:20:12;;;;;;;18.95;5.10;;;18.10;67.90;;;;;;6272864;28;20834;-73
2022/10/29 06:23:13;;;;;;;10.52;4.97;;;18.20;68.10;;;;;;6245694;28;20048;-73
2022/10/29 06:26:14;;;;;;;15.40;5.82;;;18.10;68.00;;;;;;6283482;28;20041;-73
2022/10/29 06:29:14;;;;;;;21.10;5.57;;;18.10;68.00;;;;;;6260378;28;20113;-73
2022/10/29 06:32:15;;;;;;;12.00;5.32;;;18.20;68.00;;;;;;6266752;28;20029;-73
2022/10/29 06:35:16;;;;;;;11.93;4.95;;;18.20;68.00;;;;;;6256514;28;20037;-73
2022/10/29 06:38:17;;;;;;;11.73;5.20;;;18.20;68.00;;;;;;6245637;28;20436;-73
2022/10/29 06:41:23;;;;;;;15.57;5.45;;;18.20;67.90;;;;;;6258832;28;20033;-73
2022/10/29 06:44:24;;;;;;;13.05;5.60;;;18.10;67.90;;;;;;6270800;28;20037;-73
2022/10/29 06:47:25;;;;;;;13.50;5.25;;;18.10;67.90;;;;;;6228659;28;20049;-74
2022/10/29 06:50:27;;;;;;;22.10;5.43;;;18.10;67.90;;;;;;6231611;28;20036;-73
2022/10/29 06:53:27;;;;;;;20.33;6.60;;;18.10;67.90;;;;;;6237566;28;20410;-75
2022/10/29 06:56:29;;;;;;;10.05;4.72;;;18.10;67.90;;;;;;6239396;28;20037;-73
2022/10/29 06:59:30;;;;;;;20.40;5.72;;;18.10;67.90;;;;;;6245556;28;20045;-74
2022/10/29 07:02:30;;;;;;;19.05;5.90;;;18.10;67.80;;;;;;6237965;28;20124;-74
2022/10/29 07:05:32;;;;;;;15.07;4.80;;;18.10;67.70;;;;;;6257230;28;20077;-73
2022/10/29 07:08:33;;;;;;;16.95;5.45;;;18.10;67.80;;;;;;6217670;28;20068;-72
2022/10/29 07:11:34;;;;;;;19.60;5.65;;;18.10;67.90;;;;;;6233468;28;20030;-73
2022/10/29 07:14:34;;;;;;;16.10;5.72;;;18.10;67.90;;;;;;6234392;28;20045;-73
2022/10/29 07:17:35;;;;;;;12.93;5.28;;;18.10;68.10;;;;;;6219134;28;20037;-73
2022/10/29 07:20:41;;;;;;;19.40;5.97;;;18.10;68.20;;;;;;6235300;28;20455;-73
2022/10/29 07:23:42;;;;;;;18.95;5.32;;;18.10;68.20;;;;;;6230611;28;20048;-73
2022/10/29 07:26:43;;;;;;;17.52;5.70;;;18.10;68.10;;;;;;6240839;28;20034;-74
2022/10/29 07:29:44;;;;;;;24.50;6.10;;;18.20;68.10;;;;;;6213676;28;20056;-73
2022/10/29 07:32:45;;;;;;;14.48;5.75;;;18.30;68.00;;;;;;6243970;28;20038;-74
2022/10/29 07:35:46;;;;;;;20.13;6.10;;;18.30;67.80;;;;;;6229781;28;20088;-73
2022/10/29 07:38:47;;;;;;;27.38;6.53;;;18.30;67.70;;;;;;6224821;28;20038;-73
2022/10/29 07:41:48;;;;;;;11.23;5.60;;;18.40;67.60;;;;;;6233400;28;20463;-72
2022/10/29 07:44:49;;;;;;;18.58;6.60;;;18.50;67.40;;;;;;6245775;28;20037;-72
2022/10/29 07:47:58;;;;;;;13.18;6.07;;;18.50;67.30;;;;;;6234982;28;20483;-73
2022/10/29 07:51:00;;;;;;;25.63;5.85;;;18.50;67.30;;;;;;6241600;28;20057;-73
2022/10/29 07:54:01;;;;;;;20.52;5.70;;;18.60;67.20;;;;;;6233062;28;20038;-74
2022/10/29 07:57:02;;;;;;;19.42;6.00;;;18.70;67.20;;;;;;6241602;28;20363;-72
2022/10/29 08:00:03;;;;;;;21.75;5.10;;;18.80;67.00;;;;;;6259946;28;20045;-74
2022/10/29 08:03:12;;;;;;;23.73;5.80;;;18.90;66.90;;;;;;6232771;28;20091;-72
2022/10/29 08:06:13;;;;;;;20.42;5.65;;;18.90;66.60;;;;;;6231994;28;20082;-73
2022/10/29 08:09:14;;;;;;;19.25;6.07;;;19.00;66.40;;;;;;6239240;28;20042;-73
2022/10/29 08:12:15;;;;;;;17.27;5.63;;;19.00;66.30;;;;;;6237060;28;20080;-73
2022/10/29 08:15:17;;;;;;;18.63;5.13;;;19.10;66.20;;;;;;6237347;28;20041;-73
2022/10/29 08:18:18;;;;;;;16.02;5.70;;;19.20;66.10;;;;;;6220876;28;20128;-72
2022/10/29 08:21:19;;;;;;;18.73;6.03;;;19.20;65.80;;;;;;6240854;28;20479;-72
2022/10/29 08:24:20;;;;;;;14.98;6.70;;;19.40;65.50;;;;;;6204517;28;20042;-73
2022/10/29 08:27:21;;;;;;;16.33;5.00;;;19.40;65.40;;;;;;6208252;28;20383;-73
2022/10/29 08:30:21;;;;;;;22.80;5.30;;;19.50;65.30;;;;;;6219427;28;20506;-73
2022/10/29 08:33:22;;;;;;;16.92;4.88;;;19.60;65.00;;;;;;6208656;28;20089;-73
2022/10/29 08:36:23;;;;;;;8.55;4.38;;;19.60;64.70;;;;;;6217499;28;20030;-73
2022/10/29 08:39:24;;;;;;;15.32;4.50;;;19.70;64.50;;;;;;6208751;28;20132;-73
2022/10/29 08:43:15;;;;;;;20.85;5.43;;;19.90;64.40;;;;;;6217070;28;20050;-74
2022/10/29 08:46:22;;;;;;;27.50;5.45;;;20.00;64.20;;;;;;6188146;28;20106;-73
2022/10/29 08:49:31;;;;;;;22.13;5.38;;;20.10;63.60;;;;;;6201485;28;20072;-74
2022/10/29 08:52:41;;;;;;;16.65;4.93;;;20.20;63.40;;;;;;6186077;28;20612;-73
2022/10/29 08:55:43;;;;;;;22.55;4.95;;;20.30;62.90;;;;;;6191415;28;20038;-73
2022/10/29 08:58:51;;;;;;;19.95;4.72;;;20.40;62.60;;;;;;6198148;28;20613;-74
2022/10/29 09:01:52;;;;;;;18.08;4.50;;;20.50;62.30;;;;;;6195323;28;20030;-74
2022/10/29 09:04:53;;;;;;;11.50;4.28;;;20.60;62.00;;;;;;6183672;28;20360;-74
2022/10/29 09:08:15;;;;;;;20.60;4.82;;;20.70;61.80;;;;;;6185001;28;20345;-72
2022/10/29 09:11:22;;;;;;;8.70;3.92;;;20.80;61.40;;;;;;6177405;28;20050;-74
2022/10/29 09:14:54;;;;;;;19.98;5.20;;;20.90;60.70;;;;;;6188675;28;20463;-73
2022/10/29 09:18:20;;;;;;;12.20;4.00;;;20.90;60.20;;;;;;6135585;29;20135;-73
2022/10/29 09:21:45;;;;;;;19.10;4.63;;;21.00;60.00;;;;;;6127673;28;20038;-73
2022/10/29 09:25:15;;;;;;;16.85;4.57;;;21.00;60.10;;;;;;6139079;28;20496;-72
2022/10/29 09:28:46;;;;;;;22.38;4.82;;;21.20;60.10;;;;;;6160461;28;20182;-73
2022/10/29 09:31:52;;;;;;;19.92;4.28;;;21.30;59.90;;;;;;6160680;28;20038;-73
2022/10/29 09:35:13;;;;;;;20.05;4.38;;;21.50;59.70;;;;;;6144455;28;20043;-73
2022/10/29 09:38:21;;;;;;;13.70;4.15;;;21.60;59.30;;;;;;6155641;28;20046;-73
2022/10/29 09:41:25;;;;;;;15.20;4.45;;;21.70;59.10;;;;;;6158728;28;20182;-73
2022/10/29 09:44:39;;;;;;;14.90;4.28;;;21.80;58.70;;;;;;6154761;28;20054;-75
2022/10/29 09:47:52;;;;;;;17.00;4.78;;;21.90;58.30;;;;;;6133548;28;20109;-73
2022/10/29 09:51:16;;;;;;;11.90;4.25;;;22.00;58.20;;;;;;6157243;28;20158;-73
2022/10/29 09:54:17;;;;;;;9.77;3.90;;;22.00;57.90;;;;;;6108451;29;20196;-73
2022/10/29 09:57:22;;;;;;;18.30;4.05;;;22.20;58.00;;;;;;6137401;29;20538;-74
2022/10/29 10:00:28;;;;;;;21.00;4.60;;;22.40;57.70;;;;;;6121486;29;20685;-73
2022/10/29 10:03:36;;;;;;;18.75;3.40;;;22.60;57.20;;;;;;6114091;29;20031;-73
2022/10/29 10:07:00;;;;;;;16.10;4.13;;;22.90;56.70;;;;;;6139471;29;20035;-73
2022/10/29 10:10:03;;;;;;;14.82;4.95;;;23.20;56.20;;;;;;6135069;29;20039;-73
2022/10/29 10:13:09;;;;;;;14.98;5.40;;;23.40;55.40;;;;;;6123624;29;20070;-74
2022/10/29 10:16:10;;;;;;;16.08;5.43;;;23.60;55.10;;;;;;6134653;29;20073;-73
2022/10/29 10:19:22;;;;;;;13.32;4.43;;;23.70;54.90;;;;;;6132229;29;20043;-73
2022/10/29 10:22:23;;;;;;;24.77;4.53;;;23.90;54.50;;;;;;6122171;29;20299;-73
2022/10/29 10:25:36;;;;;;;14.07;4.28;;;24.10;54.00;;;;;;6138915;28;20043;-74
2022/10/29 10:28:37;;;;;;;10.95;3.78;;;24.30;53.70;;;;;;6112657;29;20043;-74
2022/10/29 10:31:44;;;;;;;16.98;4.03;;;24.50;52.80;;;;;;6213037;28;20112;-74
2022/10/29 10:34:45;;;;;;;12.10;3.77;;;24.70;52.10;;;;;;6200317;28;20347;-73
2022/10/29 10:37:46;;;;;;;15.93;3.78;;;24.70;51.80;;;;;;6206341;28;20037;-73
2022/10/29 10:41:03;;;;;;;20.73;4.35;;;24.90;51.90;;;;;;6228518;28;20080;-74
2022/10/29 10:44:04;;;;;;;12.60;3.67;;;25.10;51.40;;;;;;6226418;28;20048;-74
2022/10/29 10:47:06;;;;;;;17.00;4.03;;;25.30;50.60;;;;;;6238608;28;20183;-74
2022/10/29 10:50:29;;;;;;;17.88;3.95;;;25.50;50.10;;;;;;6240108;28;20033;-73
2022/10/29 10:53:31;;;;;;;19.25;3.90;;;25.70;50.20;;;;;;6257698;28;20033;-73
2022/10/29 10:56:50;;;;;;;11.88;4.30;;;25.90;49.30;;;;;;6276310;28;20113;-74
2022/10/29 11:00:16;;;;;;;13.00;4.13;;;26.00;49.00;;;;;;6218758;28;20049;-74
2022/10/29 11:03:20;;;;;;;13.75;4.07;;;26.30;48.70;;;;;;6233178;28;20085;-73
2022/10/29 11:06:26;;;;;;;15.38;3.90;;;26.40;48.20;;;;;;6240160;28;20466;-73
2022/10/29 11:09:30;;;;;;;16.13;3.92;;;26.50;47.80;;;;;;6209995;28;20042;-74
2022/10/29 11:12:51;;;;;;;15.50;4.32;;;26.60;47.50;;;;;;6262683;28;20042;-73
2022/10/29 11:16:12;;;;;;;16.27;4.50;;;26.80;47.10;;;;;;6212095;28;20049;-73
2022/10/29 11:19:35;;;;;;;16.20;3.60;;;26.80;46.60;;;;;;6202751;28;20049;-74
2022/10/29 11:22:47;;;;;;;8.68;3.05;;;26.80;46.30;;;;;;6237237;28;20054;-73
2022/10/29 11:25:57;;;;;;;18.05;3.65;;;26.80;45.90;;;;;;6255405;28;20363;-74
2022/10/29 11:29:16;;;;;;;18.48;3.80;;;26.80;45.50;;;;;;6261190;28;20109;-74
2022/10/29 11:32:32;;;;;;;13.57;3.08;;;26.90;44.90;;;;;;6221771;28;20045;-74
2022/10/29 11:35:50;;;;;;;14.65;3.80;;;27.00;44.60;;;;;;6264992;28;20516;-74
2022/10/29 11:38:59;;;;;;;13.32;3.70;;;27.20;44.20;;;;;;6227538;28;20053;-73
2022/10/29 11:42:00;;;;;;;11.57;3.28;;;27.30;43.70;;;;;;6234696;28;20037;-74
2022/10/29 11:45:01;;;;;;;23.65;3.80;;;27.40;43.60;;;;;;6202846;28;20034;-74
2022/10/29 11:48:08;;;;;;;13.55;3.05;;;27.40;43.40;;;;;;6208260;28;20038;-74
2022/10/29 11:51:26;;;;;;;16.95;3.28;;;27.30;43.00;;;;;;6238957;28;20072;-74
2022/10/29 11:54:43;;;;;;;13.63;3.58;;;27.20;42.80;;;;;;6226079;28;20082;-75
2022/10/29 11:57:59;;;;;;;10.15;2.47;;;27.10;43.10;;;;;;6230472;28;20107;-73
2022/10/29 12:01:15;;;;;;;9.82;3.13;;;27.00;43.10;;;;;;6229863;28;20050;-73
2022/10/29 12:04:47;;;;;;;10.57;2.80;;;26.90;43.10;;;;;;6232473;28;20088;-74
2022/10/29 12:08:15;;;;;;;15.63;2.95;;;26.90;43.00;;;;;;6227506;28;20037;-74
2022/10/29 12:11:20;;;;;;;15.13;3.47;;;27.00;42.60;;;;;;6233112;28;20179;-73
2022/10/29 12:14:32;;;;;;;6.55;2.20;;;27.00;42.50;;;;;;6250708;28;20044;-73
2022/10/29 12:17:38;;;;;;;9.35;3.00;;;27.00;42.20;;;;;;6260514;28;20065;-74
2022/10/29 12:20:43;;;;;;;14.77;3.20;;;27.00;42.10;;;;;;6233211;28;20045;-74
2022/10/29 12:23:57;;;;;;;14.15;3.15;;;27.00;42.00;;;;;;6227367;28;20041;-73
2022/10/29 12:27:24;;;;;;;15.68;2.63;;;26.90;41.80;;;;;;6244418;28;20038;-73
2022/10/29 12:30:28;;;;;;;11.57;2.58;;;26.90;42.00;;;;;;6198857;28;20045;-74
2022/10/29 12:33:57;;;;;;;9.63;3.28;;;26.90;41.80;;;;;;6237609;28;20117;-73
2022/10/29 12:37:15;;;;;;;16.55;3.40;;;26.90;41.90;;;;;;6227939;28;20128;-74
2022/10/29 12:40:32;;;;;;;17.92;3.85;;;26.90;42.00;;;;;;6226230;28;20399;-74
2022/10/29 12:43:35;;;;;;;11.30;2.58;;;26.90;42.00;;;;;;6233241;28;20038;-73
2022/10/29 12:46:50;;;;;;;19.25;3.50;;;26.80;42.00;;;;;;6266772;28;20034;-74
2022/10/29 12:50:04;;;;;;;20.73;3.80;;;26.70;42.20;;;;;;6230336;28;20052;-74
2022/10/29 12:53:29;;;;;;;17.05;3.15;;;26.70;42.50;;;;;;6231423;28;20239;-74
2022/10/29 12:56:31;;;;;;;12.48;3.22;;;26.60;42.60;;;;;;6226177;28;20466;-73
2022/10/29 12:59:34;;;;;;;14.40;3.25;;;26.60;42.60;;;;;;6230884;28;20230;-73
2022/10/29 13:02:35;;;;;;;20.77;3.42;;;26.70;42.70;;;;;;6239520;28;20061;-74
2022/10/29 13:05:39;;;;;;;19.67;4.07;;;26.70;42.70;;;;;;6230982;28;20036;-74
2022/10/29 13:08:53;;;;;;;8.20;3.30;;;26.70;42.50;;;;;;6236728;28;20041;-74
2022/10/29 13:12:04;;;;;;;17.40;3.67;;;26.70;42.50;;;;;;6225935;28;20105;-75
2022/10/29 13:15:14;;;;;;;11.32;3.42;;;26.70;42.50;;;;;;6227771;28;20112;-74
2022/10/29 13:18:19;;;;;;;12.40;3.50;;;26.70;42.70;;;;;;6209127;28;20467;-73
2022/10/29 13:21:57;;;;;;;18.90;3.58;;;26.70;42.70;;;;;;6240202;28;20021;-73
2022/10/29 13:25:41;;;;;;;14.27;3.25;;;26.70;42.70;;;;;;6238565;28;20045;-74
2022/10/29 13:28:46;;;;;;;16.13;3.08;;;26.70;42.60;;;;;;6226778;28;20101;-74
2022/10/29 13:31:48;;;;;;;10.50;3.05;;;26.70;42.70;;;;;;6232302;28;20025;-74
2022/10/29 13:34:54;;;;;;;15.57;3.58;;;26.70;42.70;;;;;;6235408;28;20037;-73
2022/10/29 13:38:08;;;;;;;17.95;3.70;;;26.80;42.80;;;;;;6228693;28;20036;-74
2022/10/29 13:41:26;;;;;;;18.88;3.60;;;26.80;42.80;;;;;;6225898;28;20049;-74
2022/10/29 13:44:28;;;;;;;11.13;3.75;;;26.80;42.70;;;;;;6234238;28;20084;-74
2022/10/29 13:47:29;;;;;;;15.32;3.10;;;26.90;42.70;;;;;;6246710;28;20437;-73
2022/10/29 13:50:34;;;;;;;15.70;3.67;;;26.80;42.80;;;;;;6237272;28;20033;-73
2022/10/29 13:53:51;;;;;;;13.35;3.03;;;26.90;42.90;;;;;;6258784;28;20037;-73
2022/10/29 13:56:53;;;;;;;11.20;3.03;;;26.80;42.90;;;;;;6207368;28;20041;-73
2022/10/29 14:00:05;;;;;;;12.85;2.85;;;26.90;43.00;;;;;;6226950;28;20120;-73
2022/10/29 14:03:19;;;;;;;19.17;3.47;;;26.90;43.10;;;;;;6236608;28;20037;-72
2022/10/29 14:06:26;;;;;;;16.67;3.67;;;26.90;43.00;;;;;;6232133;28;20060;-73
2022/10/29 14:09:52;;;;;;;21.83;3.97;;;26.90;43.00;;;;;;6218504;28;20097;-74
2022/10/29 14:12:59;;;;;;;22.65;3.55;;;26.80;43.00;;;;;;6228733;28;20171;-74
2022/10/29 14:16:05;;;;;;;13.57;3.72;;;26.90;43.10;;;;;;6237299;28;20098;-73
2022/10/29 14:19:32;;;;;;;15.52;3.58;;;26.90;43.10;;;;;;6236663;28;20046;-74
2022/10/29 14:22:36;;;;;;;15.45;3.38;;;26.90;43.20;;;;;;6241383;28;20045;-73
2022/10/29 14:25:37;;;;;;;18.40;3.20;;;26.90;43.20;;;;;;6226150;28;20049;-73
2022/10/29 14:28:38;;;;;;;13.50;3.20;;;26.90;43.20;;;;;;6230939;28;20464;-74
2022/10/29 14:31:39;;;;;;;17.17;3.75;;;26.90;43.30;;;;;;6229116;28;20129;-73
2022/10/29 14:34:41;;;;;;;15.55;3.20;;;26.80;43.20;;;;;;6215434;28;20065;-73
2022/10/29 14:37:45;;;;;;;13.98;4.68;;;26.80;43.40;;;;;;6206459;28;20045;-73
2022/10/29 14:40:46;;;;;;;17.50;3.08;;;26.70;43.40;;;;;;6218798;28;20037;-73
2022/10/29 14:44:15;;;;;;;7.88;2.60;;;26.60;43.50;;;;;;6214821;28;20455;-73
2022/10/29 14:47:16;;;;;;;;;;;26.50;43.60;;;;;;6160352;28;20039;-73
2022/10/29 14:50:21;;;;;;;16.60;3.38;;;26.50;43.70;;;;;;6194446;28;20355;-73
2022/10/29 14:53:34;;;;;;;22.75;3.40;;;26.50;43.70;;;;;;6222017;28;20034;-74
2022/10/29 14:56:39;;;;;;;11.60;3.13;;;26.40;43.80;;;;;;6193072;28;20034;-73
2022/10/29 14:59:51;;;;;;;10.20;2.97;;;26.30;43.80;;;;;;6221138;28;20435;-73
2022/10/29 15:02:53;;;;;;;9.60;3.00;;;26.30;44.00;;;;;;6220678;28;20047;-73
2022/10/29 15:06:24;;;;;;;13.50;4.60;;;26.20;44.00;;;;;;6197658;28;20053;-73
2022/10/29 15:09:27;;;;;;;15.00;4.00;;;26.20;44.10;;;;;;6193855;28;20495;-73
2022/10/29 15:12:38;;;;;;;16.75;4.55;;;26.20;44.10;;;;;;6206365;28;20068;-74
2022/10/29 15:15:39;;;;;;;12.18;4.00;;;26.10;44.20;;;;;;6214217;28;20034;-73
2022/10/29 15:18:44;;;;;;;14.65;3.80;;;26.10;44.30;;;;;;6219873;28;20049;-73
2022/10/29 15:21:45;;;;;;;14.35;4.18;;;26.10;44.40;;;;;;6228748;28;20038;-73
2022/10/29 15:24:50;;;;;;;29.95;4.35;;;26.00;44.40;;;;;;6255114;28;20049;-74
2022/10/29 15:27:52;;;;;;;18.15;4.45;;;26.00;44.40;;;;;;6233592;28;20045;-74
2022/10/29 15:30:53;;;;;;;28.33;5.03;;;26.00;44.50;;;;;;6232989;28;20463;-73
2022/10/29 15:33:55;;;;;;;13.18;3.83;;;26.00;44.50;;;;;;6233022;28;20112;-74
2022/10/29 15:36:57;;;;;;;18.23;3.92;;;25.90;44.60;;;;;;6205160;28;20468;-74
2022/10/29 15:40:19;;;;;;;18.15;3.90;;;25.90;44.60;;;;;;6207964;28;20124;-74
2022/10/29 15:43:29;;;;;;;15.90;4.43;;;25.80;44.70;;;;;;6230924;28;20037;-74
2022/10/29 15:46:42;;;;;;;17.20;5.10;;;25.80;44.70;;;;;;6239505;28;20447;-73
2022/10/29 15:49:43;;;;;;;15.85;5.40;;;25.70;44.70;;;;;;6244327;28;20034;-75
2022/10/29 15:52:48;;;;;;;16.60;4.63;;;25.70;44.80;;;;;;6255496;28;20323;-73
2022/10/29 15:55:51;;;;;;;20.33;4.88;;;25.70;44.90;;;;;;6240027;28;20120;-73
2022/10/29 15:58:53;;;;;;;14.45;3.78;;;25.60;45.10;;;;;;6226578;28;20049;-74
2022/10/29 16:01:53;;;;;;;15.77;4.43;;;25.50;45.10;;;;;;6237261;28;20034;-74